sensor_id;sensor_type;location;lat;lon;timestamp;pressure;altitude;pressure_sealevel;temperature;humidity
56719;BME280;42597;40.636;0.278;2023-11-19T00:02:07;97978.94;;;20.17;64.96
56719;BME280;42597;40.636;0.278;2023-11-19T00:04:36;97982.09;;;20.19;64.32
56719;BME280;42597;40.636;0.278;2023-11-19T00:07:03;97980.13;;;20.16;64.92
56719;BME280;42597;40.636;0.278;2023-11-19T00:09:30;97973.44;;;20.17;64.22
56719;BME280;42597;40.636;0.278;2023-11-19T00:11:56;97971.94;;;20.34;63.61
56719;BME280;42597;40.636;0.278;2023-11-19T00:14:23;97967.97;;;20.17;64.62
56719;BME280;42597;40.636;0.278;2023-11-19T00:16:49;97976.88;;;19.86;64.22
56719;BME280;42597;40.636;0.278;2023-11-19T00:19:16;97971.75;;;19.73;66.35
56719;BME280;42597;40.636;0.278;2023-11-19T00:21:42;97973.38;;;19.92;64.55
56719;BME280;42597;40.636;0.278;2023-11-19T00:24:08;97964.28;;;19.67;65.85
56719;BME280;42597;40.636;0.278;2023-11-19T00:26:34;97963.19;;;19.82;65.69
56719;BME280;42597;40.636;0.278;2023-11-19T00:28:59;97961.63;;;19.88;66.14
56719;BME280;42597;40.636;0.278;2023-11-19T00:31:25;97962.38;;;19.75;66.46
56719;BME280;42597;40.636;0.278;2023-11-19T00:33:53;97954.53;;;19.77;66.38
56719;BME280;42597;40.636;0.278;2023-11-19T00:36:19;97951.75;;;19.69;64.43
56719;BME280;42597;40.636;0.278;2023-11-19T00:38:44;97951.41;;;19.75;66.20
56719;BME280;42597;40.636;0.278;2023-11-19T00:41:10;97951.75;;;19.69;66.41
56719;BME280;42597;40.636;0.278;2023-11-19T00:43:36;97942.84;;;19.94;65.40
56719;BME280;42597;40.636;0.278;2023-11-19T00:46:02;97946.38;;;19.91;65.55
56719;BME280;42597;40.636;0.278;2023-11-19T00:48:28;97942.38;;;19.78;64.44
56719;BME280;42597;40.636;0.278;2023-11-19T00:50:54;97935.31;;;19.69;66.04
56719;BME280;42597;40.636;0.278;2023-11-19T00:53:19;97936.47;;;19.68;64.36
56719;BME280;42597;40.636;0.278;2023-11-19T00:55:45;97929.50;;;19.92;64.70
56719;BME280;42597;40.636;0.278;2023-11-19T00:58:11;97933.41;;;19.88;64.55
56719;BME280;42597;40.636;0.278;2023-11-19T01:00:36;97930.28;;;19.93;64.26
56719;BME280;42597;40.636;0.278;2023-11-19T01:03:02;97929.50;;;19.89;65.41
56719;BME280;42597;40.636;0.278;2023-11-19T01:05:27;97926.38;;;19.97;64.26
56719;BME280;42597;40.636;0.278;2023-11-19T01:07:53;97928.34;;;19.97;64.97
56719;BME280;42597;40.636;0.278;2023-11-19T01:10:19;97932.22;;;19.82;64.89
56719;BME280;42597;40.636;0.278;2023-11-19T01:12:46;97931.06;;;19.83;65.06
56719;BME280;42597;40.636;0.278;2023-11-19T01:15:11;97926.34;;;19.83;64.93
56719;BME280;42597;40.636;0.278;2023-11-19T01:17:38;97926.31;;;19.72;65.48
56719;BME280;42597;40.636;0.278;2023-11-19T01:20:04;97926.69;;;19.67;65.11
56719;BME280;42597;40.636;0.278;2023-11-19T01:22:32;97920.81;;;19.72;65.41
56719;BME280;42597;40.636;0.278;2023-11-19T01:24:58;97916.91;;;19.70;65.82
56719;BME280;42597;40.636;0.278;2023-11-19T01:27:24;97923.97;;;19.75;65.88
56719;BME280;42597;40.636;0.278;2023-11-19T01:29:50;97919.66;;;19.66;65.10
56719;BME280;42597;40.636;0.278;2023-11-19T01:32:15;97917.31;;;19.76;64.98
56719;BME280;42597;40.636;0.278;2023-11-19T01:34:41;97906.31;;;19.68;58.66
56719;BME280;42597;40.636;0.278;2023-11-19T01:37:07;97911.47;;;19.84;64.27
56719;BME280;42597;40.636;0.278;2023-11-19T01:39:34;97908.31;;;19.79;65.04
56719;BME280;42597;40.636;0.278;2023-11-19T01:42:00;97903.63;;;19.83;65.09
56719;BME280;42597;40.636;0.278;2023-11-19T01:44:25;97900.09;;;19.86;64.54
56719;BME280;42597;40.636;0.278;2023-11-19T01:46:51;97900.47;;;19.81;64.54
56719;BME280;42597;40.636;0.278;2023-11-19T01:49:19;97901.69;;;19.87;64.69
56719;BME280;42597;40.636;0.278;2023-11-19T01:51:46;97902.06;;;19.89;64.23
56719;BME280;42597;40.636;0.278;2023-11-19T01:54:12;97896.56;;;19.82;64.80
56719;BME280;42597;40.636;0.278;2023-11-19T01:56:40;97897.72;;;19.77;64.45
56719;BME280;42597;40.636;0.278;2023-11-19T01:59:07;97899.22;;;19.60;64.62
56719;BME280;42597;40.636;0.278;2023-11-19T02:01:35;97893.41;;;19.72;64.59
56719;BME280;42597;40.636;0.278;2023-11-19T02:04:08;97898.91;;;19.76;64.05
56719;BME280;42597;40.636;0.278;2023-11-19T02:06:34;97898.50;;;19.67;64.44
56719;BME280;42597;40.636;0.278;2023-11-19T02:09:02;97888.69;;;19.69;65.31
56719;BME280;42597;40.636;0.278;2023-11-19T02:11:34;97891.78;;;19.61;65.41
56719;BME280;42597;40.636;0.278;2023-11-19T02:14:00;97893.41;;;19.72;65.07
56719;BME280;42597;40.636;0.278;2023-11-19T02:16:26;97893.81;;;19.82;64.05
56719;BME280;42597;40.636;0.278;2023-11-19T02:18:53;97891.06;;;19.67;64.85
56719;BME280;42597;40.636;0.278;2023-11-19T02:21:18;97890.25;;;19.63;63.89
56719;BME280;42597;40.636;0.278;2023-11-19T02:23:45;97892.16;;;19.52;65.61
56719;BME280;42597;40.636;0.278;2023-11-19T02:26:39;97882.44;;;19.69;64.75
56719;BME280;42597;40.636;0.278;2023-11-19T02:29:09;97884.78;;;19.78;64.23
56719;BME280;42597;40.636;0.278;2023-11-19T02:31:34;97890.66;;;19.72;63.62
56719;BME280;42597;40.636;0.278;2023-11-19T02:34:00;97879.31;;;19.67;63.74
56719;BME280;42597;40.636;0.278;2023-11-19T02:36:27;97880.41;;;19.55;65.28
56719;BME280;42597;40.636;0.278;2023-11-19T02:38:53;97875.38;;;19.64;65.00
56719;BME280;42597;40.636;0.278;2023-11-19T02:41:19;97862.84;;;19.63;64.95
56719;BME280;42597;40.636;0.278;2023-11-19T02:43:45;97861.66;;;19.64;64.70
56719;BME280;42597;40.636;0.278;2023-11-19T02:46:13;97869.88;;;19.64;64.96
56719;BME280;42597;40.636;0.278;2023-11-19T02:48:38;97867.50;;;19.59;65.11
56719;BME280;42597;40.636;0.278;2023-11-19T02:51:05;97865.44;;;19.28;64.33
56719;BME280;42597;40.636;0.278;2023-11-19T02:53:34;97862.75;;;19.42;64.86
56719;BME280;42597;40.636;0.278;2023-11-19T02:56:00;97857.31;;;19.56;65.08
56719;BME280;42597;40.636;0.278;2023-11-19T02:58:37;97862.00;;;19.56;63.46
56719;BME280;42597;40.636;0.278;2023-11-19T03:01:04;97855.69;;;19.44;63.62
56719;BME280;42597;40.636;0.278;2023-11-19T03:03:38;97850.63;;;19.43;65.06
56719;BME280;42597;40.636;0.278;2023-11-19T03:06:06;97851.78;;;19.49;65.19
56719;BME280;42597;40.636;0.278;2023-11-19T03:08:32;97852.22;;;19.58;64.16
56719;BME280;42597;40.636;0.278;2023-11-19T03:10:58;97849.50;;;19.58;64.03
56719;BME280;42597;40.636;0.278;2023-11-19T03:13:24;97852.59;;;19.53;64.62
56719;BME280;42597;40.636;0.278;2023-11-19T03:15:50;97845.56;;;19.59;64.54
56719;BME280;42597;40.636;0.278;2023-11-19T03:18:16;97837.00;;;19.68;63.39
56719;BME280;42597;40.636;0.278;2023-11-19T03:20:42;97842.78;;;19.48;64.04
56719;BME280;42597;40.636;0.278;2023-11-19T03:23:08;97848.28;;;19.52;64.44
56719;BME280;42597;40.636;0.278;2023-11-19T03:25:33;97849.34;;;19.15;58.41
56719;BME280;42597;40.636;0.278;2023-11-19T03:28:00;97845.38;;;19.02;64.42
56719;BME280;42597;40.636;0.278;2023-11-19T03:30:29;97847.06;;;19.35;64.73
56719;BME280;42597;40.636;0.278;2023-11-19T03:32:56;97854.06;;;19.29;65.38
56719;BME280;42597;40.636;0.278;2023-11-19T03:35:25;97851.13;;;19.70;63.44
56719;BME280;42597;40.636;0.278;2023-11-19T03:37:51;97855.66;;;19.27;62.08
56719;BME280;42597;40.636;0.278;2023-11-19T03:40:17;97852.16;;;19.30;64.10
56719;BME280;42597;40.636;0.278;2023-11-19T03:42:45;97847.09;;;19.49;64.65
56719;BME280;42597;40.636;0.278;2023-11-19T03:45:10;97842.88;;;19.63;63.59
56719;BME280;42597;40.636;0.278;2023-11-19T03:47:36;97840.00;;;19.31;56.97
56719;BME280;42597;40.636;0.278;2023-11-19T03:50:02;97846.81;;;19.80;62.78
56719;BME280;42597;40.636;0.278;2023-11-19T03:52:29;97844.06;;;19.76;62.61
56719;BME280;42597;40.636;0.278;2023-11-19T03:54:55;97835.47;;;19.74;62.75
56719;BME280;42597;40.636;0.278;2023-11-19T03:57:22;97840.94;;;19.70;62.97
56719;BME280;42597;40.636;0.278;2023-11-19T03:59:48;97847.97;;;19.64;63.41
56719;BME280;42597;40.636;0.278;2023-11-19T04:02:13;97849.06;;;19.49;63.79
56719;BME280;42597;40.636;0.278;2023-11-19T04:04:39;97847.13;;;19.60;63.49
56719;BME280;42597;40.636;0.278;2023-11-19T04:07:05;97844.84;;;19.62;63.35
56719;BME280;42597;40.636;0.278;2023-11-19T04:09:31;97849.44;;;19.47;63.90
56719;BME280;42597;40.636;0.278;2023-11-19T04:11:58;97846.28;;;19.31;64.82
56719;BME280;42597;40.636;0.278;2023-11-19T04:14:24;97849.72;;;19.17;65.25
56719;BME280;42597;40.636;0.278;2023-11-19T04:16:50;97855.63;;;19.23;65.58
56719;BME280;42597;40.636;0.278;2023-11-19T04:19:16;97856.47;;;19.45;64.14
56719;BME280;42597;40.636;0.278;2023-11-19T04:21:42;97863.56;;;19.53;63.64
56719;BME280;42597;40.636;0.278;2023-11-19T04:24:09;97865.13;;;19.47;63.44
56719;BME280;42597;40.636;0.278;2023-11-19T04:26:46;97849.41;;;19.37;64.59
56719;BME280;42597;40.636;0.278;2023-11-19T04:29:12;97861.16;;;19.41;64.50
56719;BME280;42597;40.636;0.278;2023-11-19T04:31:38;97873.88;;;16.93;56.51
56719;BME280;42597;40.636;0.278;2023-11-19T04:34:05;97876.97;;;16.92;62.16
56719;BME280;42597;40.636;0.278;2023-11-19T04:36:32;97872.56;;;16.84;62.48
56719;BME280;42597;40.636;0.278;2023-11-19T04:38:59;97864.03;;;15.67;61.65
56719;BME280;42597;40.636;0.278;2023-11-19T04:41:25;97867.44;;;15.64;66.61
56719;BME280;42597;40.636;0.278;2023-11-19T04:43:53;97870.13;;;15.41;63.80
56719;BME280;42597;40.636;0.278;2023-11-19T04:46:19;97862.19;;;15.94;66.43
56719;BME280;42597;40.636;0.278;2023-11-19T04:48:45;97863.94;;;15.63;64.65
56719;BME280;42597;40.636;0.278;2023-11-19T04:51:10;97857.94;;;15.73;65.44
56719;BME280;42597;40.636;0.278;2023-11-19T04:53:36;97855.75;;;16.28;65.25
56719;BME280;42597;40.636;0.278;2023-11-19T04:56:07;97852.13;;;17.68;70.28
56719;BME280;42597;40.636;0.278;2023-11-19T04:58:34;97847.56;;;17.12;60.53
56719;BME280;42597;40.636;0.278;2023-11-19T05:01:01;97850.41;;;16.62;61.19
56719;BME280;42597;40.636;0.278;2023-11-19T05:03:27;97848.00;;;15.03;65.56
56719;BME280;42597;40.636;0.278;2023-11-19T05:05:52;97843.03;;;16.13;69.30
56719;BME280;42597;40.636;0.278;2023-11-19T05:08:19;97846.00;;;16.54;68.41
56719;BME280;42597;40.636;0.278;2023-11-19T05:10:44;97844.91;;;17.49;70.42
56719;BME280;42597;40.636;0.278;2023-11-19T05:13:10;97840.34;;;16.93;65.89
56719;BME280;42597;40.636;0.278;2023-11-19T05:15:35;97841.34;;;17.11;63.06
56719;BME280;42597;40.636;0.278;2023-11-19T05:18:01;97833.38;;;17.66;59.39
56719;BME280;42597;40.636;0.278;2023-11-19T05:20:27;97840.38;;;15.94;60.32
56719;BME280;42597;40.636;0.278;2023-11-19T05:22:52;97836.69;;;15.63;63.07
56719;BME280;42597;40.636;0.278;2023-11-19T05:25:18;97832.56;;;16.42;61.60
56719;BME280;42597;40.636;0.278;2023-11-19T05:27:45;97835.31;;;16.68;59.39
56719;BME280;42597;40.636;0.278;2023-11-19T05:30:11;97834.72;;;15.41;61.83
56719;BME280;42597;40.636;0.278;2023-11-19T05:32:37;97830.94;;;15.26;62.76
56719;BME280;42597;40.636;0.278;2023-11-19T05:35:02;97827.44;;;15.25;63.65
56719;BME280;42597;40.636;0.278;2023-11-19T05:37:28;97834.97;;;14.58;65.92
56719;BME280;42597;40.636;0.278;2023-11-19T05:39:54;97828.97;;;16.11;65.50
56719;BME280;42597;40.636;0.278;2023-11-19T05:42:20;97829.88;;;14.92;64.71
56719;BME280;42597;40.636;0.278;2023-11-19T05:44:45;97831.38;;;14.54;69.93
56719;BME280;42597;40.636;0.278;2023-11-19T05:47:11;97833.50;;;14.45;67.42
56719;BME280;42597;40.636;0.278;2023-11-19T05:49:37;97822.47;;;16.19;73.03
56719;BME280;42597;40.636;0.278;2023-11-19T05:52:03;97826.63;;;15.87;66.40
56719;BME280;42597;40.636;0.278;2023-11-19T05:54:32;97827.06;;;15.89;74.22
56719;BME280;42597;40.636;0.278;2023-11-19T05:57:06;97823.88;;;16.33;65.27
56719;BME280;42597;40.636;0.278;2023-11-19T05:59:35;97826.69;;;16.13;66.20
56719;BME280;42597;40.636;0.278;2023-11-19T06:02:02;97829.41;;;15.67;63.49
56719;BME280;42597;40.636;0.278;2023-11-19T06:04:28;97824.28;;;14.85;64.85
56719;BME280;42597;40.636;0.278;2023-11-19T06:06:53;97832.44;;;14.49;66.14
56719;BME280;42597;40.636;0.278;2023-11-19T06:09:21;97818.13;;;14.88;66.49
56719;BME280;42597;40.636;0.278;2023-11-19T06:11:49;97825.78;;;15.40;62.50
56719;BME280;42597;40.636;0.278;2023-11-19T06:14:16;97829.72;;;15.23;63.43
56719;BME280;42597;40.636;0.278;2023-11-19T06:16:41;97824.38;;;14.88;64.29
56719;BME280;42597;40.636;0.278;2023-11-19T06:19:07;97819.38;;;15.52;71.79
56719;BME280;42597;40.636;0.278;2023-11-19T06:21:33;97826.69;;;15.67;66.74
56719;BME280;42597;40.636;0.278;2023-11-19T06:23:58;97835.31;;;14.92;63.38
56719;BME280;42597;40.636;0.278;2023-11-19T06:26:24;97838.38;;;14.90;68.17
56719;BME280;42597;40.636;0.278;2023-11-19T06:28:50;97839.59;;;15.51;62.91
56719;BME280;42597;40.636;0.278;2023-11-19T06:31:15;97833.72;;;15.68;70.56
56719;BME280;42597;40.636;0.278;2023-11-19T06:33:42;97830.44;;;15.40;70.54
56719;BME280;42597;40.636;0.278;2023-11-19T06:36:08;97833.97;;;14.66;65.63
56719;BME280;42597;40.636;0.278;2023-11-19T06:38:34;97844.75;;;14.27;67.21
56719;BME280;42597;40.636;0.278;2023-11-19T06:41:00;97839.28;;;14.78;65.70
56719;BME280;42597;40.636;0.278;2023-11-19T06:43:27;97844.41;;;14.80;64.99
56719;BME280;42597;40.636;0.278;2023-11-19T06:45:53;97846.69;;;15.98;66.92
56719;BME280;42597;40.636;0.278;2023-11-19T06:48:19;97851.56;;;15.27;64.95
56719;BME280;42597;40.636;0.278;2023-11-19T06:50:45;97845.63;;;15.02;64.46
56719;BME280;42597;40.636;0.278;2023-11-19T06:53:11;97839.59;;;14.73;65.81
56719;BME280;42597;40.636;0.278;2023-11-19T06:55:36;97851.06;;;14.31;67.53
56719;BME280;42597;40.636;0.278;2023-11-19T06:58:02;97852.13;;;14.11;68.05
56719;BME280;42597;40.636;0.278;2023-11-19T07:00:29;97856.31;;;14.56;76.22
56719;BME280;42597;40.636;0.278;2023-11-19T07:02:55;97847.28;;;14.52;67.49
56719;BME280;42597;40.636;0.278;2023-11-19T07:05:21;97850.78;;;14.37;67.29
56719;BME280;42597;40.636;0.278;2023-11-19T07:07:46;97858.22;;;14.40;67.33
56719;BME280;42597;40.636;0.278;2023-11-19T07:10:12;97852.03;;;14.23;68.45
56719;BME280;42597;40.636;0.278;2023-11-19T07:12:38;97856.03;;;14.29;67.73
56719;BME280;42597;40.636;0.278;2023-11-19T07:15:04;97847.78;;;14.93;67.26
56719;BME280;42597;40.636;0.278;2023-11-19T07:17:31;97851.78;;;15.38;70.44
56719;BME280;42597;40.636;0.278;2023-11-19T07:19:56;97855.50;;;14.71;65.02
56719;BME280;42597;40.636;0.278;2023-11-19T07:22:25;97857.97;;;14.96;64.46
56719;BME280;42597;40.636;0.278;2023-11-19T07:24:51;97869.72;;;14.33;68.84
56719;BME280;42597;40.636;0.278;2023-11-19T07:27:19;97869.75;;;15.23;72.35
56719;BME280;42597;40.636;0.278;2023-11-19T07:29:44;97871.44;;;15.08;64.52
56719;BME280;42597;40.636;0.278;2023-11-19T07:32:10;97880.66;;;15.62;72.09
56719;BME280;42597;40.636;0.278;2023-11-19T07:34:36;97874.50;;;17.43;70.95
56719;BME280;42597;40.636;0.278;2023-11-19T07:37:02;97882.78;;;17.20;67.14
56719;BME280;42597;40.636;0.278;2023-11-19T07:39:31;97883.63;;;16.18;64.42
56719;BME280;42597;40.636;0.278;2023-11-19T07:41:56;97881.88;;;17.09;65.35
56719;BME280;42597;40.636;0.278;2023-11-19T07:44:22;97893.25;;;16.85;62.96
56719;BME280;42597;40.636;0.278;2023-11-19T07:46:47;97884.31;;;16.61;63.79
56719;BME280;42597;40.636;0.278;2023-11-19T07:49:13;97886.41;;;16.98;68.83
56719;BME280;42597;40.636;0.278;2023-11-19T07:51:39;97890.19;;;17.20;62.65
56719;BME280;42597;40.636;0.278;2023-11-19T07:54:05;97886.53;;;17.39;68.59
56719;BME280;42597;40.636;0.278;2023-11-19T07:56:34;97885.44;;;17.13;65.05
56719;BME280;42597;40.636;0.278;2023-11-19T07:59:01;97890.97;;;17.20;67.93
56719;BME280;42597;40.636;0.278;2023-11-19T08:01:27;97891.22;;;16.55;60.75
56719;BME280;42597;40.636;0.278;2023-11-19T08:03:53;97896.84;;;16.66;65.79
56719;BME280;42597;40.636;0.278;2023-11-19T08:06:19;97903.28;;;16.54;62.10
56719;BME280;42597;40.636;0.278;2023-11-19T08:08:44;97899.44;;;16.09;64.78
56719;BME280;42597;40.636;0.278;2023-11-19T08:11:10;97904.31;;;16.00;64.54
56719;BME280;42597;40.636;0.278;2023-11-19T08:13:36;97903.13;;;15.97;65.29
56719;BME280;42597;40.636;0.278;2023-11-19T08:16:01;97899.50;;;15.90;65.38
56719;BME280;42597;40.636;0.278;2023-11-19T08:18:27;97902.22;;;15.90;66.07
56719;BME280;42597;40.636;0.278;2023-11-19T08:20:53;97898.47;;;16.21;69.38
56719;BME280;42597;40.636;0.278;2023-11-19T08:23:19;97913.41;;;16.53;65.67
56719;BME280;42597;40.636;0.278;2023-11-19T08:25:45;97910.22;;;16.25;64.62
56719;BME280;42597;40.636;0.278;2023-11-19T08:28:10;97911.84;;;16.29;65.66
56719;BME280;42597;40.636;0.278;2023-11-19T08:30:36;97911.25;;;16.17;65.19
56719;BME280;42597;40.636;0.278;2023-11-19T08:33:02;97911.16;;;16.59;68.56
56719;BME280;42597;40.636;0.278;2023-11-19T08:35:31;97913.94;;;16.63;67.95
56719;BME280;42597;40.636;0.278;2023-11-19T08:37:57;97917.84;;;16.39;64.62
56719;BME280;42597;40.636;0.278;2023-11-19T08:40:24;97918.88;;;16.76;67.14
56719;BME280;42597;40.636;0.278;2023-11-19T08:42:51;97923.63;;;16.34;67.24
56719;BME280;42597;40.636;0.278;2023-11-19T08:45:17;97925.25;;;16.15;68.26
56719;BME280;42597;40.636;0.278;2023-11-19T08:47:43;97922.56;;;16.19;68.34
56719;BME280;42597;40.636;0.278;2023-11-19T08:50:11;97919.84;;;16.19;68.45
56719;BME280;42597;40.636;0.278;2023-11-19T08:52:36;97926.88;;;16.43;68.46
56719;BME280;42597;40.636;0.278;2023-11-19T08:55:02;97924.22;;;16.23;68.51
56719;BME280;42597;40.636;0.278;2023-11-19T08:57:30;97931.25;;;16.24;68.53
56719;BME280;42597;40.636;0.278;2023-11-19T08:59:56;97935.50;;;16.45;68.82
56719;BME280;42597;40.636;0.278;2023-11-19T09:02:21;97933.72;;;16.79;69.79
56719;BME280;42597;40.636;0.278;2023-11-19T09:04:47;97939.94;;;16.80;67.97
56719;BME280;42597;40.636;0.278;2023-11-19T09:07:13;97943.50;;;16.57;66.46
56719;BME280;42597;40.636;0.278;2023-11-19T09:09:38;97931.53;;;16.42;67.78
56719;BME280;42597;40.636;0.278;2023-11-19T09:12:04;97930.03;;;16.45;68.60
56719;BME280;42597;40.636;0.278;2023-11-19T09:14:30;97936.03;;;16.54;67.79
56719;BME280;42597;40.636;0.278;2023-11-19T09:16:56;97934.88;;;16.55;67.82
56719;BME280;42597;40.636;0.278;2023-11-19T09:19:22;97936.38;;;16.75;68.05
56719;BME280;42597;40.636;0.278;2023-11-19T09:21:47;97934.66;;;16.90;67.88
56719;BME280;42597;40.636;0.278;2023-11-19T09:24:15;97934.59;;;16.87;67.56
56719;BME280;42597;40.636;0.278;2023-11-19T09:26:41;97937.13;;;16.99;67.95
56719;BME280;42597;40.636;0.278;2023-11-19T09:29:10;97939.44;;;16.97;67.69
56719;BME280;42597;40.636;0.278;2023-11-19T09:31:37;97936.84;;;17.08;68.19
56719;BME280;42597;40.636;0.278;2023-11-19T09:34:03;97940.78;;;17.10;68.09
56719;BME280;42597;40.636;0.278;2023-11-19T09:36:29;97934.59;;;16.87;69.00
56719;BME280;42597;40.636;0.278;2023-11-19T09:38:54;97936.28;;;16.95;69.04
56719;BME280;42597;40.636;0.278;2023-11-19T09:41:20;97926.94;;;16.96;69.64
56719;BME280;42597;40.636;0.278;2023-11-19T09:43:46;97936.72;;;16.97;69.70
56719;BME280;42597;40.636;0.278;2023-11-19T09:46:15;97939.94;;;17.33;71.99
56719;BME280;42597;40.636;0.278;2023-11-19T09:48:42;97933.28;;;17.64;71.61
56719;BME280;42597;40.636;0.278;2023-11-19T09:51:10;97930.19;;;17.65;71.64
56719;BME280;42597;40.636;0.278;2023-11-19T09:53:36;97932.97;;;17.39;68.78
56719;BME280;42597;40.636;0.278;2023-11-19T09:56:06;97940.72;;;17.33;68.58
56719;BME280;42597;40.636;0.278;2023-11-19T09:58:33;97927.56;;;17.42;71.67
56719;BME280;42597;40.636;0.278;2023-11-19T10:01:00;97927.94;;;17.41;69.12
56719;BME280;42597;40.636;0.278;2023-11-19T10:03:32;97937.47;;;17.54;69.71
56719;BME280;42597;40.636;0.278;2023-11-19T10:05:58;97930.63;;;17.37;70.84
56719;BME280;42597;40.636;0.278;2023-11-19T10:08:25;97929.19;;;17.47;70.68
56719;BME280;42597;40.636;0.278;2023-11-19T10:10:51;97930.00;;;17.51;68.57
56719;BME280;42597;40.636;0.278;2023-11-19T10:13:17;97932.16;;;18.02;70.41
56719;BME280;42597;40.636;0.278;2023-11-19T10:15:43;97931.97;;;17.84;67.23
56719;BME280;42597;40.636;0.278;2023-11-19T10:18:09;97937.13;;;17.59;66.89
56719;BME280;42597;40.636;0.278;2023-11-19T10:20:40;97923.28;;;17.75;68.78
56719;BME280;42597;40.636;0.278;2023-11-19T10:23:06;97927.16;;;17.74;67.49
56719;BME280;42597;40.636;0.278;2023-11-19T10:25:33;97927.03;;;17.63;65.44
56719;BME280;42597;40.636;0.278;2023-11-19T10:27:59;97918.19;;;17.73;65.47
56719;BME280;42597;40.636;0.278;2023-11-19T10:30:30;97917.03;;;17.74;66.00
56719;BME280;42597;40.636;0.278;2023-11-19T10:33:12;97917.59;;;17.91;63.79
56719;BME280;42597;40.636;0.278;2023-11-19T10:35:53;97910.13;;;17.88;64.17
56719;BME280;42597;40.636;0.278;2023-11-19T10:38:20;97913.38;;;18.00;63.38
56719;BME280;42597;40.636;0.278;2023-11-19T10:40:47;97913.03;;;18.02;64.55
56719;BME280;42597;40.636;0.278;2023-11-19T10:43:13;97900.84;;;17.96;65.03
56719;BME280;42597;40.636;0.278;2023-11-19T10:45:40;97897.84;;;18.08;64.23
56719;BME280;42597;40.636;0.278;2023-11-19T10:48:06;97899.81;;;18.11;65.07
56719;BME280;42597;40.636;0.278;2023-11-19T10:50:40;97884.69;;;18.24;65.41
56719;BME280;42597;40.636;0.278;2023-11-19T10:53:07;97891.66;;;18.15;66.19
56719;BME280;42597;40.636;0.278;2023-11-19T10:55:35;97876.16;;;18.30;65.32
56719;BME280;42597;40.636;0.278;2023-11-19T10:58:02;97883.94;;;18.28;66.36
56719;BME280;42597;40.636;0.278;2023-11-19T11:00:30;97879.31;;;18.35;67.74
56719;BME280;42597;40.636;0.278;2023-11-19T11:03:00;97869.53;;;18.31;68.39
56719;BME280;42597;40.636;0.278;2023-11-19T11:05:26;97873.47;;;18.33;67.92
56719;BME280;42597;40.636;0.278;2023-11-19T11:07:55;97865.31;;;18.44;67.94
56719;BME280;42597;40.636;0.278;2023-11-19T11:10:25;97868.44;;;18.42;67.40
56719;BME280;42597;40.636;0.278;2023-11-19T11:12:52;97863.75;;;18.43;67.25
56719;BME280;42597;40.636;0.278;2023-11-19T11:15:32;97851.97;;;18.90;67.02
56719;BME280;42597;40.636;0.278;2023-11-19T11:18:02;97854.19;;;18.70;65.36
56719;BME280;42597;40.636;0.278;2023-11-19T11:20:31;97854.53;;;18.69;64.96
56719;BME280;42597;40.636;0.278;2023-11-19T11:26:18;97845.97;;;18.70;63.91
56719;BME280;42597;40.636;0.278;2023-11-19T11:29:02;97848.28;;;18.68;63.96
56719;BME280;42597;40.636;0.278;2023-11-19T11:32:00;97840.47;;;18.67;64.62
56719;BME280;42597;40.636;0.278;2023-11-19T11:34:42;97837.31;;;18.68;64.10
56719;BME280;42597;40.636;0.278;2023-11-19T11:37:32;97838.97;;;18.77;63.47
56719;BME280;42597;40.636;0.278;2023-11-19T11:40:01;97820.97;;;18.76;62.85
56719;BME280;42597;40.636;0.278;2023-11-19T11:42:34;97819.44;;;18.78;64.11
56719;BME280;42597;40.636;0.278;2023-11-19T11:45:05;97816.72;;;18.82;63.61
56719;BME280;42597;40.636;0.278;2023-11-19T11:50:12;97812.44;;;18.91;62.68
56719;BME280;42597;40.636;0.278;2023-11-19T11:55:33;97799.66;;;19.24;64.05
56719;BME280;42597;40.636;0.278;2023-11-19T11:58:00;97799.59;;;19.03;61.82
56719;BME280;42597;40.636;0.278;2023-11-19T12:00:41;97794.59;;;19.22;64.19
56719;BME280;42597;40.636;0.278;2023-11-19T12:03:11;97791.41;;;19.13;61.04
56719;BME280;42597;40.636;0.278;2023-11-19T12:05:44;97792.19;;;19.10;61.28
56719;BME280;42597;40.636;0.278;2023-11-19T12:08:11;97795.34;;;19.16;60.14
56719;BME280;42597;40.636;0.278;2023-11-19T12:10:47;97785.19;;;19.23;60.67
56719;BME280;42597;40.636;0.278;2023-11-19T12:13:14;97787.19;;;19.34;60.72
56719;BME280;42597;40.636;0.278;2023-11-19T12:18:24;97793.03;;;19.36;59.04
56719;BME280;42597;40.636;0.278;2023-11-19T12:20:51;97779.75;;;19.38;59.09
56719;BME280;42597;40.636;0.278;2023-11-19T12:23:17;97780.91;;;19.37;58.16
56719;BME280;42597;40.636;0.278;2023-11-19T12:25:42;97782.06;;;19.29;58.08
56719;BME280;42597;40.636;0.278;2023-11-19T12:28:14;97768.78;;;19.38;58.81
56719;BME280;42597;40.636;0.278;2023-11-19T12:30:40;97769.56;;;19.49;58.26
56719;BME280;42597;40.636;0.278;2023-11-19T12:33:09;97763.31;;;19.52;57.64
56719;BME280;42597;40.636;0.278;2023-11-19T12:35:42;97763.72;;;19.54;57.12
56719;BME280;42597;40.636;0.278;2023-11-19T12:38:18;97765.69;;;19.50;56.77
56719;BME280;42597;40.636;0.278;2023-11-19T12:40:43;97762.91;;;19.54;56.56
56719;BME280;42597;40.636;0.278;2023-11-19T12:43:09;97763.38;;;19.63;57.70
56719;BME280;42597;40.636;0.278;2023-11-19T12:45:35;97757.50;;;19.64;56.47
56719;BME280;42597;40.636;0.278;2023-11-19T12:48:05;97753.19;;;19.70;54.81
56719;BME280;42597;40.636;0.278;2023-11-19T12:50:57;97753.97;;;19.82;57.58
56719;BME280;42597;40.636;0.278;2023-11-19T12:53:24;97757.13;;;19.91;59.34
56719;BME280;42597;40.636;0.278;2023-11-19T12:55:51;97753.97;;;19.82;53.59
56719;BME280;42597;40.636;0.278;2023-11-19T13:01:03;97755.16;;;19.99;51.78
56719;BME280;42597;40.636;0.278;2023-11-19T13:03:30;97762.19;;;19.85;51.21
56719;BME280;42597;40.636;0.278;2023-11-19T13:06:07;97755.53;;;19.76;50.70
56719;BME280;42597;40.636;0.278;2023-11-19T13:08:47;97749.28;;;19.79;50.55
56719;BME280;42597;40.636;0.278;2023-11-19T13:11:33;97743.81;;;19.79;49.87
56719;BME280;42597;40.636;0.278;2023-11-19T13:14:00;97747.31;;;19.83;51.36
56719;BME280;42597;40.636;0.278;2023-11-19T13:16:27;97745.34;;;19.80;50.04